sensor_id;sensor_type;location;lat;lon;timestamp;temperature;humidity
44855;DHT22;30591;48.228;16.398;2023-04-06T00:01:17;-1.40;96.30
44855;DHT22;30591;48.228;16.398;2023-04-06T00:03:44;-1.30;96.50
44855;DHT22;30591;48.228;16.398;2023-04-06T00:06:11;-1.30;96.40
44855;DHT22;30591;48.228;16.398;2023-04-06T00:08:42;-1.30;96.40
44855;DHT22;30591;48.228;16.398;2023-04-06T00:11:10;-1.30;96.40
44855;DHT22;30591;48.228;16.398;2023-04-06T00:13:37;-1.20;96.70
44855;DHT22;30591;48.228;16.398;2023-04-06T00:16:05;-1.30;96.60
44855;DHT22;30591;48.228;16.398;2023-04-06T00:18:33;-1.20;96.80
44855;DHT22;30591;48.228;16.398;2023-04-06T00:21:00;-1.20;96.70
44855;DHT22;30591;48.228;16.398;2023-04-06T00:23:28;-1.20;96.80
44855;DHT22;30591;48.228;16.398;2023-04-06T00:25:55;-1.30;96.80
44855;DHT22;30591;48.228;16.398;2023-04-06T00:28:23;-1.20;96.90
44855;DHT22;30591;48.228;16.398;2023-04-06T00:30:53;-1.30;96.70
44855;DHT22;30591;48.228;16.398;2023-04-06T00:33:23;-1.40;96.80
44855;DHT22;30591;48.228;16.398;2023-04-06T00:35:50;-1.50;96.90
44855;DHT22;30591;48.228;16.398;2023-04-06T00:38:18;-1.50;97.20
44855;DHT22;30591;48.228;16.398;2023-04-06T00:40:46;-1.50;97.40
44855;DHT22;30591;48.228;16.398;2023-04-06T00:43:14;-1.50;97.50
44855;DHT22;30591;48.228;16.398;2023-04-06T00:45:42;-1.50;97.60
44855;DHT22;30591;48.228;16.398;2023-04-06T00:48:10;-1.50;97.70
44855;DHT22;30591;48.228;16.398;2023-04-06T00:50:37;-1.50;97.70
44855;DHT22;30591;48.228;16.398;2023-04-06T00:53:05;-1.50;98.00
44855;DHT22;30591;48.228;16.398;2023-04-06T00:55:32;-1.50;98.00
44855;DHT22;30591;48.228;16.398;2023-04-06T00:58:00;-1.40;97.90
44855;DHT22;30591;48.228;16.398;2023-04-06T01:00:33;-1.40;97.90
44855;DHT22;30591;48.228;16.398;2023-04-06T01:03:02;-1.50;97.70
44855;DHT22;30591;48.228;16.398;2023-04-06T01:05:37;-1.60;97.70
44855;DHT22;30591;48.228;16.398;2023-04-06T01:08:16;-1.60;98.20
44855;DHT22;30591;48.228;16.398;2023-04-06T01:10:44;-1.70;98.50
44855;DHT22;30591;48.228;16.398;2023-04-06T01:13:23;-1.70;98.40
44855;DHT22;30591;48.228;16.398;2023-04-06T01:15:53;-1.70;98.60
44855;DHT22;30591;48.228;16.398;2023-04-06T01:18:31;-1.90;97.90
44855;DHT22;30591;48.228;16.398;2023-04-06T01:21:13;-1.80;98.30
44855;DHT22;30591;48.228;16.398;2023-04-06T01:24:05;-1.90;98.40
44855;DHT22;30591;48.228;16.398;2023-04-06T01:26:45;-1.90;98.20
44855;DHT22;30591;48.228;16.398;2023-04-06T01:29:12;-1.90;98.50
44855;DHT22;30591;48.228;16.398;2023-04-06T01:31:40;-1.90;98.50
44855;DHT22;30591;48.228;16.398;2023-04-06T01:34:07;-2.00;98.40
44855;DHT22;30591;48.228;16.398;2023-04-06T01:36:35;-2.20;98.20
44855;DHT22;30591;48.228;16.398;2023-04-06T01:39:17;-2.20;99.00
44855;DHT22;30591;48.228;16.398;2023-04-06T01:41:45;-2.20;99.40
44855;DHT22;30591;48.228;16.398;2023-04-06T01:44:17;-2.10;99.40
44855;DHT22;30591;48.228;16.398;2023-04-06T01:46:52;-2.20;99.50
44855;DHT22;30591;48.228;16.398;2023-04-06T01:49:19;-2.30;99.10
44855;DHT22;30591;48.228;16.398;2023-04-06T01:51:52;-2.40;99.60
44855;DHT22;30591;48.228;16.398;2023-04-06T01:54:21;-2.40;99.80
44855;DHT22;30591;48.228;16.398;2023-04-06T01:57:10;-2.40;99.90
44855;DHT22;30591;48.228;16.398;2023-04-06T01:59:45;-2.50;99.70
44855;DHT22;30591;48.228;16.398;2023-04-06T02:02:39;-2.40;99.90
44855;DHT22;30591;48.228;16.398;2023-04-06T02:05:14;-2.40;99.90
44855;DHT22;30591;48.228;16.398;2023-04-06T02:07:42;-2.40;99.90
44855;DHT22;30591;48.228;16.398;2023-04-06T02:10:14;-2.40;99.90
44855;DHT22;30591;48.228;16.398;2023-04-06T02:12:43;-2.40;99.90
44855;DHT22;30591;48.228;16.398;2023-04-06T02:15:17;-2.40;99.90
44855;DHT22;30591;48.228;16.398;2023-04-06T02:17:44;-2.40;99.90
44855;DHT22;30591;48.228;16.398;2023-04-06T02:20:12;-2.40;99.90
44855;DHT22;30591;48.228;16.398;2023-04-06T02:22:39;-2.40;99.90
44855;DHT22;30591;48.228;16.398;2023-04-06T02:25:08;-2.40;99.90
44855;DHT22;30591;48.228;16.398;2023-04-06T02:27:36;-2.50;99.90
44855;DHT22;30591;48.228;16.398;2023-04-06T02:30:04;-2.70;99.90
44855;DHT22;30591;48.228;16.398;2023-04-06T02:32:32;-2.70;99.90
44855;DHT22;30591;48.228;16.398;2023-04-06T02:35:00;-2.80;99.90
44855;DHT22;30591;48.228;16.398;2023-04-06T02:37:29;-2.80;99.90
44855;DHT22;30591;48.228;16.398;2023-04-06T02:39:58;-2.80;99.90
44855;DHT22;30591;48.228;16.398;2023-04-06T02:42:27;-2.90;99.90
44855;DHT22;30591;48.228;16.398;2023-04-06T02:44:55;-3.00;99.90
44855;DHT22;30591;48.228;16.398;2023-04-06T02:47:26;-3.10;99.90
44855;DHT22;30591;48.228;16.398;2023-04-06T02:49:54;-3.00;99.90
44855;DHT22;30591;48.228;16.398;2023-04-06T02:52:21;-3.00;99.90
44855;DHT22;30591;48.228;16.398;2023-04-06T02:54:49;-3.20;99.90
44855;DHT22;30591;48.228;16.398;2023-04-06T02:57:24;-3.10;99.90
44855;DHT22;30591;48.228;16.398;2023-04-06T02:59:52;-3.00;99.90
44855;DHT22;30591;48.228;16.398;2023-04-06T03:02:25;-2.90;99.90
44855;DHT22;30591;48.228;16.398;2023-04-06T03:05:02;-2.80;99.90
44855;DHT22;30591;48.228;16.398;2023-04-06T03:07:35;-2.70;99.90
44855;DHT22;30591;48.228;16.398;2023-04-06T03:10:03;-2.70;99.90
44855;DHT22;30591;48.228;16.398;2023-04-06T03:12:32;-2.80;99.90
44855;DHT22;30591;48.228;16.398;2023-04-06T03:15:18;-3.00;99.90
44855;DHT22;30591;48.228;16.398;2023-04-06T03:17:50;-3.20;99.90
44855;DHT22;30591;48.228;16.398;2023-04-06T03:20:36;-3.20;99.90
44855;DHT22;30591;48.228;16.398;2023-04-06T03:23:03;-3.00;99.90
44855;DHT22;30591;48.228;16.398;2023-04-06T03:25:38;-2.90;99.90
44855;DHT22;30591;48.228;16.398;2023-04-06T03:28:09;-2.80;99.90
44855;DHT22;30591;48.228;16.398;2023-04-06T03:30:46;-2.80;99.90
44855;DHT22;30591;48.228;16.398;2023-04-06T03:33:17;-2.80;99.90
44855;DHT22;30591;48.228;16.398;2023-04-06T03:35:52;-2.80;99.90
44855;DHT22;30591;48.228;16.398;2023-04-06T03:38:22;-2.90;99.90
44855;DHT22;30591;48.228;16.398;2023-04-06T03:40:50;-2.90;99.90
44855;DHT22;30591;48.228;16.398;2023-04-06T03:43:21;-3.00;99.90
44855;DHT22;30591;48.228;16.398;2023-04-06T03:45:49;-3.10;99.90
44855;DHT22;30591;48.228;16.398;2023-04-06T03:48:17;-3.10;99.90
44855;DHT22;30591;48.228;16.398;2023-04-06T03:50:44;-3.10;99.90
44855;DHT22;30591;48.228;16.398;2023-04-06T03:53:11;-3.10;99.90
44855;DHT22;30591;48.228;16.398;2023-04-06T03:55:39;-3.10;99.90
44855;DHT22;30591;48.228;16.398;2023-04-06T03:58:06;-3.20;99.90
44855;DHT22;30591;48.228;16.398;2023-04-06T04:00:34;-3.30;99.90
44855;DHT22;30591;48.228;16.398;2023-04-06T04:03:01;-3.30;99.90
44855;DHT22;30591;48.228;16.398;2023-04-06T04:05:29;-3.50;99.90
44855;DHT22;30591;48.228;16.398;2023-04-06T04:07:57;-3.60;99.90
44855;DHT22;30591;48.228;16.398;2023-04-06T04:10:26;-3.50;99.90
44855;DHT22;30591;48.228;16.398;2023-04-06T04:12:53;-3.40;99.90
44855;DHT22;30591;48.228;16.398;2023-04-06T04:15:21;-3.40;99.90
44855;DHT22;30591;48.228;16.398;2023-04-06T04:17:48;-3.30;99.90
44855;DHT22;30591;48.228;16.398;2023-04-06T04:20:16;-3.40;99.90
44855;DHT22;30591;48.228;16.398;2023-04-06T04:22:44;-3.40;99.90
44855;DHT22;30591;48.228;16.398;2023-04-06T04:25:12;-3.50;99.90
44855;DHT22;30591;48.228;16.398;2023-04-06T04:27:45;-3.50;99.90
44855;DHT22;30591;48.228;16.398;2023-04-06T04:30:13;-3.50;99.90
44855;DHT22;30591;48.228;16.398;2023-04-06T04:32:41;-3.70;99.90
44855;DHT22;30591;48.228;16.398;2023-04-06T04:35:09;-3.70;99.90
44855;DHT22;30591;48.228;16.398;2023-04-06T04:37:41;-3.80;99.90
44855;DHT22;30591;48.228;16.398;2023-04-06T04:40:10;-3.80;99.90
44855;DHT22;30591;48.228;16.398;2023-04-06T04:42:49;-3.80;99.90
44855;DHT22;30591;48.228;16.398;2023-04-06T04:45:27;-3.60;99.90
44855;DHT22;30591;48.228;16.398;2023-04-06T04:47:57;-3.50;99.90
44855;DHT22;30591;48.228;16.398;2023-04-06T04:50:30;-3.40;99.90
44855;DHT22;30591;48.228;16.398;2023-04-06T04:52:58;-3.40;99.90
44855;DHT22;30591;48.228;16.398;2023-04-06T04:55:27;-3.30;99.90
44855;DHT22;30591;48.228;16.398;2023-04-06T04:57:57;-3.30;99.90
44855;DHT22;30591;48.228;16.398;2023-04-06T05:00:38;-3.30;99.90
44855;DHT22;30591;48.228;16.398;2023-04-06T05:03:06;-3.20;99.90
44855;DHT22;30591;48.228;16.398;2023-04-06T05:05:36;-3.10;99.90
44855;DHT22;30591;48.228;16.398;2023-04-06T05:08:05;-3.00;99.90
44855;DHT22;30591;48.228;16.398;2023-04-06T05:10:41;-3.30;99.90
44855;DHT22;30591;48.228;16.398;2023-04-06T05:13:09;-3.20;99.90
44855;DHT22;30591;48.228;16.398;2023-04-06T05:15:36;-3.10;99.90
44855;DHT22;30591;48.228;16.398;2023-04-06T05:18:19;-3.00;99.90
44855;DHT22;30591;48.228;16.398;2023-04-06T05:20:47;-2.80;99.90
44855;DHT22;30591;48.228;16.398;2023-04-06T05:23:14;-2.80;99.90
44855;DHT22;30591;48.228;16.398;2023-04-06T05:25:43;-2.40;99.90
44855;DHT22;30591;48.228;16.398;2023-04-06T05:28:18;-2.10;99.90
44855;DHT22;30591;48.228;16.398;2023-04-06T05:30:45;-2.10;99.90
44855;DHT22;30591;48.228;16.398;2023-04-06T05:33:14;-2.00;99.90
44855;DHT22;30591;48.228;16.398;2023-04-06T05:36:02;-1.60;99.90
44855;DHT22;30591;48.228;16.398;2023-04-06T05:38:30;-1.30;99.90
44855;DHT22;30591;48.228;16.398;2023-04-06T05:41:08;-1.10;99.90
44855;DHT22;30591;48.228;16.398;2023-04-06T05:43:36;-0.90;99.90
44855;DHT22;30591;48.228;16.398;2023-04-06T05:46:04;-0.80;99.90
44855;DHT22;30591;48.228;16.398;2023-04-06T05:48:32;-0.70;99.90
44855;DHT22;30591;48.228;16.398;2023-04-06T05:51:01;-0.70;99.90
44855;DHT22;30591;48.228;16.398;2023-04-06T05:53:38;-0.60;99.90
44855;DHT22;30591;48.228;16.398;2023-04-06T05:56:05;-0.50;99.90
44855;DHT22;30591;48.228;16.398;2023-04-06T05:58:35;-0.50;99.90
44855;DHT22;30591;48.228;16.398;2023-04-06T06:01:02;-0.40;99.90
44855;DHT22;30591;48.228;16.398;2023-04-06T06:03:39;-0.10;99.90
44855;DHT22;30591;48.228;16.398;2023-04-06T06:06:06;0.10;99.90
44855;DHT22;30591;48.228;16.398;2023-04-06T06:08:57;0.30;99.90
44855;DHT22;30591;48.228;16.398;2023-04-06T06:11:32;0.50;99.90
44855;DHT22;30591;48.228;16.398;2023-04-06T06:14:02;0.60;99.60
44855;DHT22;30591;48.228;16.398;2023-04-06T06:16:33;0.90;98.80
44855;DHT22;30591;48.228;16.398;2023-04-06T06:19:02;1.00;99.10
44855;DHT22;30591;48.228;16.398;2023-04-06T06:21:31;1.10;98.80
44855;DHT22;30591;48.228;16.398;2023-04-06T06:23:59;1.20;98.60
44855;DHT22;30591;48.228;16.398;2023-04-06T11:52:17;1.40;98.60
44855;DHT22;30591;48.228;16.398;2023-04-06T11:54:46;14.10;63.10
44855;DHT22;30591;48.228;16.398;2023-04-06T11:57:15;14.10;62.90
44855;DHT22;30591;48.228;16.398;2023-04-06T11:59:43;14.70;59.10
44855;DHT22;30591;48.228;16.398;2023-04-06T12:02:11;13.80;58.60
44855;DHT22;30591;48.228;16.398;2023-04-06T12:04:39;13.10;59.20
44855;DHT22;30591;48.228;16.398;2023-04-06T12:07:06;11.30;60.50
44855;DHT22;30591;48.228;16.398;2023-04-06T12:09:33;11.40;61.90
44855;DHT22;30591;48.228;16.398;2023-04-06T12:12:03;11.70;65.40
44855;DHT22;30591;48.228;16.398;2023-04-06T12:14:31;11.30;61.60
44855;DHT22;30591;48.228;16.398;2023-04-06T12:16:58;11.60;62.30
44855;DHT22;30591;48.228;16.398;2023-04-06T12:19:26;10.50;61.80
44855;DHT22;30591;48.228;16.398;2023-04-06T12:21:53;11.60;66.00
44855;DHT22;30591;48.228;16.398;2023-04-06T12:24:21;12.00;63.90
44855;DHT22;30591;48.228;16.398;2023-04-06T12:26:49;12.00;59.80
44855;DHT22;30591;48.228;16.398;2023-04-06T12:29:25;12.10;65.30
44855;DHT22;30591;48.228;16.398;2023-04-06T12:31:53;12.40;61.50
44855;DHT22;30591;48.228;16.398;2023-04-06T12:34:20;12.90;59.60
44855;DHT22;30591;48.228;16.398;2023-04-06T12:36:48;13.60;60.40
44855;DHT22;30591;48.228;16.398;2023-04-06T12:39:15;14.00;60.00
44855;DHT22;30591;48.228;16.398;2023-04-06T12:41:46;12.40;59.40
44855;DHT22;30591;48.228;16.398;2023-04-06T12:44:13;13.80;58.40
44855;DHT22;30591;48.228;16.398;2023-04-06T12:46:40;14.00;56.80
44855;DHT22;30591;48.228;16.398;2023-04-06T12:49:08;15.60;56.40
44855;DHT22;30591;48.228;16.398;2023-04-06T12:51:35;16.20;54.60
44855;DHT22;30591;48.228;16.398;2023-04-06T12:54:03;16.20;54.70
44855;DHT22;30591;48.228;16.398;2023-04-06T12:56:30;17.30;54.60
44855;DHT22;30591;48.228;16.398;2023-04-06T12:58:58;17.20;54.70
44855;DHT22;30591;48.228;16.398;2023-04-06T13:01:25;16.60;53.50
44855;DHT22;30591;48.228;16.398;2023-04-06T13:03:56;16.80;54.10
44855;DHT22;30591;48.228;16.398;2023-04-06T13:06:24;18.00;52.20
44855;DHT22;30591;48.228;16.398;2023-04-06T13:08:55;17.80;52.10
44855;DHT22;30591;48.228;16.398;2023-04-06T13:11:22;17.00;52.30
44855;DHT22;30591;48.228;16.398;2023-04-06T13:13:54;17.50;55.30
44855;DHT22;30591;48.228;16.398;2023-04-06T13:16:21;17.30;53.40
44855;DHT22;30591;48.228;16.398;2023-04-06T13:18:49;17.00;50.20
44855;DHT22;30591;48.228;16.398;2023-04-06T13:21:17;17.10;49.80
44855;DHT22;30591;48.228;16.398;2023-04-06T13:23:46;15.20;53.70
44855;DHT22;30591;48.228;16.398;2023-04-06T13:26:13;17.20;50.70
44855;DHT22;30591;48.228;16.398;2023-04-06T13:28:42;17.80;48.40
44855;DHT22;30591;48.228;16.398;2023-04-06T13:31:10;15.60;50.70
44855;DHT22;30591;48.228;16.398;2023-04-06T13:33:38;15.60;50.70
44855;DHT22;30591;48.228;16.398;2023-04-06T13:36:08;18.50;50.50
44855;DHT22;30591;48.228;16.398;2023-04-06T13:38:35;17.50;47.80
44855;DHT22;30591;48.228;16.398;2023-04-06T13:41:06;16.30;50.50
44855;DHT22;30591;48.228;16.398;2023-04-06T13:43:33;17.40;48.70
44855;DHT22;30591;48.228;16.398;2023-04-06T13:46:00;16.40;47.70
44855;DHT22;30591;48.228;16.398;2023-04-06T13:48:28;17.80;49.60
44855;DHT22;30591;48.228;16.398;2023-04-06T13:50:55;19.00;46.90
44855;DHT22;30591;48.228;16.398;2023-04-06T13:53:23;19.50;46.00
44855;DHT22;30591;48.228;16.398;2023-04-06T13:55:54;18.60;47.10
44855;DHT22;30591;48.228;16.398;2023-04-06T13:58:23;17.30;47.10
44855;DHT22;30591;48.228;16.398;2023-04-06T14:00:50;15.90;49.00
44855;DHT22;30591;48.228;16.398;2023-04-06T14:03:18;16.30;47.60
44855;DHT22;30591;48.228;16.398;2023-04-06T14:05:46;18.10;48.00
44855;DHT22;30591;48.228;16.398;2023-04-06T14:08:14;18.40;44.90
44855;DHT22;30591;48.228;16.398;2023-04-06T14:10:41;18.10;47.10
44855;DHT22;30591;48.228;16.398;2023-04-06T14:13:10;18.60;47.60
44855;DHT22;30591;48.228;16.398;2023-04-06T14:15:37;19.00;47.00
44855;DHT22;30591;48.228;16.398;2023-04-06T14:18:05;18.30;46.30
44855;DHT22;30591;48.228;16.398;2023-04-06T14:20:33;17.30;44.60
44855;DHT22;30591;48.228;16.398;2023-04-06T14:23:01;19.00;46.00
44855;DHT22;30591;48.228;16.398;2023-04-06T14:25:29;18.20;44.60
44855;DHT22;30591;48.228;16.398;2023-04-06T14:27:59;17.50;46.80
44855;DHT22;30591;48.228;16.398;2023-04-06T14:30:26;17.30;45.80
44855;DHT22;30591;48.228;16.398;2023-04-06T14:32:58;18.30;46.60
44855;DHT22;30591;48.228;16.398;2023-04-06T14:35:26;17.80;44.60
44855;DHT22;30591;48.228;16.398;2023-04-06T14:37:56;17.40;45.50
44855;DHT22;30591;48.228;16.398;2023-04-06T14:40:26;16.80;45.80
44855;DHT22;30591;48.228;16.398;2023-04-06T14:42:53;17.70;45.10
44855;DHT22;30591;48.228;16.398;2023-04-06T14:45:22;16.60;45.20
44855;DHT22;30591;48.228;16.398;2023-04-06T14:47:50;16.30;46.20
44855;DHT22;30591;48.228;16.398;2023-04-06T14:50:17;17.40;45.80
44855;DHT22;30591;48.228;16.398;2023-04-06T14:52:45;18.20;45.10
44855;DHT22;30591;48.228;16.398;2023-04-06T14:55:13;17.90;44.40
44855;DHT22;30591;48.228;16.398;2023-04-06T14:57:41;17.20;45.20
44855;DHT22;30591;48.228;16.398;2023-04-06T15:00:08;13.20;49.30
44855;DHT22;30591;48.228;16.398;2023-04-06T15:02:36;11.40;51.90
44855;DHT22;30591;48.228;16.398;2023-04-06T15:05:05;11.30;53.60
44855;DHT22;30591;48.228;16.398;2023-04-06T15:07:32;11.50;52.50
44855;DHT22;30591;48.228;16.398;2023-04-06T15:09:59;11.30;52.90
44855;DHT22;30591;48.228;16.398;2023-04-06T15:12:27;11.30;53.50
44855;DHT22;30591;48.228;16.398;2023-04-06T15:14:56;11.30;53.50
44855;DHT22;30591;48.228;16.398;2023-04-06T15:17:23;11.30;54.00
44855;DHT22;30591;48.228;16.398;2023-04-06T15:19:53;11.10;53.70
44855;DHT22;30591;48.228;16.398;2023-04-06T15:22:21;11.10;54.00
44855;DHT22;30591;48.228;16.398;2023-04-06T15:24:48;11.00;53.60
44855;DHT22;30591;48.228;16.398;2023-04-06T15:27:16;11.00;54.20
44855;DHT22;30591;48.228;16.398;2023-04-06T15:29:43;11.10;54.70
44855;DHT22;30591;48.228;16.398;2023-04-06T15:32:10;10.90;55.30
44855;DHT22;30591;48.228;16.398;2023-04-06T15:34:38;11.00;55.30
44855;DHT22;30591;48.228;16.398;2023-04-06T15:37:06;10.60;54.90
44855;DHT22;30591;48.228;16.398;2023-04-06T15:39:34;10.50;55.00
44855;DHT22;30591;48.228;16.398;2023-04-06T15:42:03;10.50;55.60
44855;DHT22;30591;48.228;16.398;2023-04-06T15:44:31;10.60;55.00
44855;DHT22;30591;48.228;16.398;2023-04-06T15:46:58;10.50;55.40
44855;DHT22;30591;48.228;16.398;2023-04-06T15:49:26;10.40;56.90
44855;DHT22;30591;48.228;16.398;2023-04-06T15:51:53;10.30;56.00
44855;DHT22;30591;48.228;16.398;2023-04-06T15:54:20;10.20;55.20
44855;DHT22;30591;48.228;16.398;2023-04-06T15:56:48;10.10;55.70
44855;DHT22;30591;48.228;16.398;2023-04-06T15:59:16;10.00;55.90
44855;DHT22;30591;48.228;16.398;2023-04-06T16:01:45;9.90;56.60
44855;DHT22;30591;48.228;16.398;2023-04-06T16:04:13;10.00;57.00
44855;DHT22;30591;48.228;16.398;2023-04-06T16:06:41;10.00;56.60
44855;DHT22;30591;48.228;16.398;2023-04-06T16:09:08;10.00;57.60
44855;DHT22;30591;48.228;16.398;2023-04-06T16:11:35;9.90;57.00
44855;DHT22;30591;48.228;16.398;2023-04-06T16:14:03;9.80;58.40
44855;DHT22;30591;48.228;16.398;2023-04-06T16:16:31;9.90;58.10
44855;DHT22;30591;48.228;16.398;2023-04-06T16:18:58;9.70;57.30
44855;DHT22;30591;48.228;16.398;2023-04-06T16:21:25;9.70;59.20
44855;DHT22;30591;48.228;16.398;2023-04-06T16:23:54;9.50;57.50
44855;DHT22;30591;48.228;16.398;2023-04-06T16:26:23;9.50;57.80
44855;DHT22;30591;48.228;16.398;2023-04-06T16:28:50;9.40;58.70
44855;DHT22;30591;48.228;16.398;2023-04-06T16:31:22;9.40;57.80
44855;DHT22;30591;48.228;16.398;2023-04-06T16:33:55;9.40;57.80
44855;DHT22;30591;48.228;16.398;2023-04-06T16:36:27;9.30;58.20
44855;DHT22;30591;48.228;16.398;2023-04-06T16:38:56;9.20;59.40
44855;DHT22;30591;48.228;16.398;2023-04-06T16:41:25;9.20;58.40
44855;DHT22;30591;48.228;16.398;2023-04-06T16:43:53;9.20;58.50
44855;DHT22;30591;48.228;16.398;2023-04-06T16:46:31;9.20;58.60
44855;DHT22;30591;48.228;16.398;2023-04-06T16:48:59;9.10;58.60
44855;DHT22;30591;48.228;16.398;2023-04-06T16:51:28;9.10;58.30
44855;DHT22;30591;48.228;16.398;2023-04-06T16:53:55;9.10;58.10
44855;DHT22;30591;48.228;16.398;2023-04-06T16:56:22;9.00;58.30
44855;DHT22;30591;48.228;16.398;2023-04-06T16:58:50;9.10;58.40
44855;DHT22;30591;48.228;16.398;2023-04-06T17:01:19;9.00;58.70
44855;DHT22;30591;48.228;16.398;2023-04-06T17:03:47;9.00;58.80
44855;DHT22;30591;48.228;16.398;2023-04-06T17:06:16;9.00;58.80
44855;DHT22;30591;48.228;16.398;2023-04-06T17:08:44;8.90;58.10
44855;DHT22;30591;48.228;16.398;2023-04-06T17:11:13;8.90;58.50
